createdAt,value
2023-03-27T00:00:22.779Z,0.7
2023-03-27T00:01:38.909Z,0.7
2023-03-27T00:02:55.040Z,0.6
2023-03-27T00:04:11.178Z,0.6
2023-03-27T00:05:27.323Z,0.5
2023-03-27T00:06:43.457Z,0.5
2023-03-27T00:07:59.591Z,0.6
2023-03-27T00:09:15.733Z,0.6
2023-03-27T00:10:31.873Z,0.5
2023-03-27T00:11:48.006Z,0.6
2023-03-27T00:13:04.133Z,0.6
2023-03-27T00:14:20.267Z,0.5
2023-03-27T00:15:36.420Z,0.5
2023-03-27T00:16:52.549Z,0.7
2023-03-27T00:18:08.686Z,0.7
2023-03-27T00:19:24.807Z,0.7
2023-03-27T00:20:40.963Z,0.5
2023-03-27T00:21:57.100Z,0.7
2023-03-27T00:23:13.216Z,0.6
2023-03-27T00:24:29.360Z,0.9
2023-03-27T00:25:45.479Z,0.6
2023-03-27T00:27:01.635Z,0.5
2023-03-27T00:28:17.824Z,0.7
2023-03-27T00:29:33.071Z,0.5
2023-03-27T00:30:49.258Z,0.5
2023-03-27T00:32:04.465Z,0.7
2023-03-27T00:33:20.604Z,0.5
2023-03-27T00:34:36.735Z,0.6
2023-03-27T00:35:52.859Z,0.6
2023-03-27T00:37:09.014Z,0.6
2023-03-27T00:38:25.148Z,0.5
2023-03-27T00:39:41.282Z,0.7
2023-03-27T00:40:57.418Z,0.6
2023-03-27T00:42:13.551Z,0.5
2023-03-27T00:43:29.690Z,0.6
2023-03-27T00:44:45.816Z,0.4
2023-03-27T00:46:01.954Z,0.5
2023-03-27T00:47:18.092Z,0.4
2023-03-27T00:48:34.228Z,0.5
2023-03-27T00:49:50.370Z,0.6
2023-03-27T00:51:06.508Z,0.7
2023-03-27T00:52:22.632Z,0.6
2023-03-27T00:53:38.781Z,0.5
2023-03-27T00:54:54.900Z,0.4
2023-03-27T00:56:11.049Z,0.5
2023-03-27T00:57:27.192Z,0.5
2023-03-27T00:58:43.314Z,0.6
2023-03-27T00:59:59.442Z,0.6
2023-03-27T01:01:15.575Z,0.5
2023-03-27T01:02:31.731Z,0.4
2023-03-27T01:03:47.920Z,0.4
2023-03-27T01:05:03.157Z,0.6
2023-03-27T01:06:18.366Z,0.5
2023-03-27T01:07:34.506Z,0.7
2023-03-27T01:08:50.628Z,0.5
2023-03-27T01:10:06.760Z,0.6
2023-03-27T01:11:22.911Z,0.5
2023-03-27T01:12:39.055Z,0.5
2023-03-27T01:13:55.178Z,0.5
2023-03-27T01:15:11.318Z,0.4
2023-03-27T01:16:27.453Z,0.5
2023-03-27T01:17:43.581Z,0.6
2023-03-27T01:18:59.738Z,0.6
2023-03-27T01:20:15.871Z,0.4
2023-03-27T01:21:32.005Z,0.5
2023-03-27T01:22:48.121Z,0.5
2023-03-27T01:24:04.261Z,0.5
2023-03-27T01:25:20.408Z,0.6
2023-03-27T01:26:36.549Z,0.5
2023-03-27T01:27:52.671Z,0.5
2023-03-27T01:29:08.812Z,0.5
2023-03-27T01:30:24.949Z,0.6
2023-03-27T01:31:41.087Z,0.4
2023-03-27T01:32:57.229Z,0.5
2023-03-27T01:34:13.363Z,0.5
2023-03-27T01:35:29.489Z,0.4
2023-03-27T01:36:45.624Z,0.6
2023-03-27T01:38:01.828Z,0.4
2023-03-27T01:39:17.075Z,0.6
2023-03-27T01:40:32.274Z,0.4
2023-03-27T01:41:48.417Z,0.5
2023-03-27T01:43:04.557Z,0.6
2023-03-27T01:44:20.673Z,0.6
2023-03-27T01:45:36.816Z,0.5
2023-03-27T01:46:52.945Z,0.5
2023-03-27T01:48:09.096Z,0.6
2023-03-27T01:49:25.237Z,0.5
2023-03-27T01:50:41.353Z,0.5
2023-03-27T01:51:57.493Z,0.7
2023-03-27T01:53:13.624Z,0.5
2023-03-27T01:54:29.770Z,0.6
2023-03-27T01:57:02.050Z,0.4
2023-03-27T01:58:18.182Z,0.5
2023-03-27T01:59:34.312Z,0.5
2023-03-27T02:00:50.464Z,0.4
2023-03-27T02:02:06.594Z,0.5
2023-03-27T02:03:22.712Z,0.5
2023-03-27T02:04:38.854Z,0.5
2023-03-27T02:05:54.987Z,0.5
2023-03-27T02:07:11.144Z,0.5
2023-03-27T02:08:27.260Z,0.4
2023-03-27T02:09:43.392Z,0.4
2023-03-27T02:10:59.542Z,0.5
2023-03-27T02:12:15.717Z,0.4
2023-03-27T02:13:30.966Z,0.3
2023-03-27T02:14:47.157Z,0.4
2023-03-27T02:16:02.361Z,0.3
2023-03-27T02:17:18.501Z,0.6
2023-03-27T02:18:34.639Z,0.4
2023-03-27T02:19:50.781Z,0.5
2023-03-27T02:21:06.900Z,0.4
2023-03-27T02:22:23.030Z,0.5
2023-03-27T02:23:39.182Z,0.6
2023-03-27T02:24:55.323Z,0.4
2023-03-27T02:26:11.447Z,0.5
2023-03-27T02:27:27.588Z,0.4
2023-03-27T02:28:43.722Z,0.5
2023-03-27T02:29:59.868Z,0.4
2023-03-27T02:31:16.003Z,0.4
2023-03-27T02:32:32.130Z,0.4
2023-03-27T02:33:48.265Z,0.4
2023-03-27T02:35:04.390Z,0.5
2023-03-27T02:36:20.546Z,0.4
2023-03-27T02:37:36.686Z,0.5
2023-03-27T02:38:52.818Z,0.3
2023-03-27T02:40:08.950Z,0.4
2023-03-27T02:41:25.081Z,0.4
2023-03-27T02:42:41.221Z,0.4
2023-03-27T02:43:57.358Z,0.4
2023-03-27T02:45:13.496Z,0.4
2023-03-27T02:46:29.623Z,0.5
2023-03-27T02:47:45.818Z,0.5
2023-03-27T02:49:01.047Z,0.4
2023-03-27T02:50:16.266Z,0.3
2023-03-27T02:51:31.402Z,0.5
2023-03-27T02:52:47.542Z,0.4
2023-03-27T02:54:03.685Z,0.5
2023-03-27T02:55:19.801Z,0.4
2023-03-27T02:56:35.946Z,0.4
2023-03-27T02:57:52.092Z,0.4
2023-03-27T02:59:08.231Z,0.6
2023-03-27T03:00:24.361Z,0.4
2023-03-27T03:01:40.484Z,0.4
2023-03-27T03:02:56.626Z,0.5
2023-03-27T03:04:12.767Z,0.5
2023-03-27T03:05:28.902Z,0.4
2023-03-27T03:06:45.037Z,0.4
2023-03-27T03:08:01.165Z,0.4
2023-03-27T03:09:17.303Z,0.4
2023-03-27T03:10:33.448Z,0.5
2023-03-27T03:11:49.582Z,0.4
2023-03-27T03:13:05.719Z,0.4
2023-03-27T03:14:21.844Z,0.4
2023-03-27T03:15:37.985Z,0.6
2023-03-27T03:16:54.129Z,0.5
2023-03-27T03:18:10.259Z,0.4
2023-03-27T03:19:26.403Z,0.4
2023-03-27T03:20:42.522Z,0.4
2023-03-27T03:21:58.658Z,0.4
2023-03-27T03:23:14.810Z,0.5
2023-03-27T03:24:30.948Z,0.4
2023-03-27T03:25:47.070Z,0.4
2023-03-27T03:27:03.200Z,0.5
2023-03-27T03:28:19.334Z,0.3
2023-03-27T03:29:35.490Z,0.4
2023-03-27T03:30:51.624Z,0.4
2023-03-27T03:32:07.747Z,0.4
2023-03-27T03:33:23.888Z,0.5
2023-03-27T03:34:40.030Z,0.5
2023-03-27T03:35:56.161Z,0.5
2023-03-27T03:37:12.302Z,0.4
2023-03-27T03:38:28.503Z,0.6
2023-03-27T03:39:43.758Z,0.5
2023-03-27T03:40:58.967Z,0.4
2023-03-27T03:42:15.097Z,0.4
2023-03-27T03:43:31.219Z,0.6
2023-03-27T03:44:47.370Z,0.4
2023-03-27T03:46:03.509Z,0.4
2023-03-27T03:47:19.643Z,0.4
2023-03-27T03:48:35.777Z,0.5
2023-03-27T03:49:51.912Z,0.5
2023-03-27T03:51:08.045Z,0.5
2023-03-27T03:52:24.180Z,0.2
2023-03-27T03:53:40.330Z,0.5
2023-03-27T03:54:56.463Z,0.3
2023-03-27T03:56:12.584Z,0.5
2023-03-27T03:57:28.716Z,0.5
2023-03-27T03:58:44.865Z,0.5
2023-03-27T04:00:01.005Z,0.5
2023-03-27T04:01:17.134Z,0.5
2023-03-27T04:02:33.258Z,0.4
2023-03-27T04:03:49.389Z,0.4
2023-03-27T04:05:05.551Z,0.4
2023-03-27T04:06:21.688Z,0.4
2023-03-27T04:07:37.817Z,0.4
2023-03-27T04:08:53.938Z,0.4
2023-03-27T04:10:10.071Z,0.5
2023-03-27T04:11:26.222Z,0.4
2023-03-27T04:12:42.421Z,0.4
2023-03-27T04:13:57.662Z,0.4
2023-03-27T04:15:12.870Z,0.4
2023-03-27T04:16:28.986Z,0.3
2023-03-27T04:17:45.136Z,0.4
2023-03-27T04:19:01.266Z,0.3
2023-03-27T04:20:17.403Z,0.4
2023-03-27T04:21:33.536Z,0.4
2023-03-27T04:22:49.679Z,0.4
2023-03-27T04:24:05.816Z,0.5
2023-03-27T04:25:21.937Z,0.3
2023-03-27T04:26:38.067Z,0.4
2023-03-27T04:27:54.216Z,0.5
2023-03-27T04:29:10.348Z,0.5
2023-03-27T04:30:26.491Z,0.4
2023-03-27T04:31:42.627Z,0.5
2023-03-27T04:32:58.749Z,0.4
2023-03-27T04:34:14.894Z,0.3
2023-03-27T04:35:31.042Z,0.5
2023-03-27T04:36:47.173Z,0.4
2023-03-27T04:38:03.306Z,0.4
2023-03-27T04:39:19.440Z,0.4
2023-03-27T04:40:35.584Z,0.5
2023-03-27T04:41:51.716Z,0.5
2023-03-27T04:43:07.840Z,0.4
2023-03-27T04:44:23.973Z,0.5
2023-03-27T04:45:40.117Z,0.4
2023-03-27T04:46:56.329Z,0.4
2023-03-27T04:48:11.566Z,0.4
2023-03-27T04:49:27.742Z,0.4
2023-03-27T04:50:42.960Z,0.4
2023-03-27T04:51:59.091Z,0.4
2023-03-27T04:53:15.229Z,0.5
2023-03-27T04:54:31.357Z,0.5
2023-03-27T04:55:47.498Z,0.5
2023-03-27T04:57:03.646Z,0.6
2023-03-27T04:58:19.763Z,0.5
2023-03-27T04:59:35.894Z,0.4
2023-03-27T05:00:52.032Z,0.5
2023-03-27T05:02:08.173Z,0.4
2023-03-27T05:03:24.317Z,0.4
2023-03-27T05:04:40.454Z,0.5
2023-03-27T05:05:56.593Z,0.5
2023-03-27T05:07:12.724Z,0.4
2023-03-27T05:08:28.855Z,0.4
2023-03-27T05:09:45.004Z,0.5
2023-03-27T05:11:01.127Z,0.5
2023-03-27T05:12:17.264Z,0.5
2023-03-27T05:13:33.403Z,0.3
2023-03-27T05:14:49.538Z,0.5
2023-03-27T05:16:05.674Z,0.6
2023-03-27T05:17:21.814Z,0.4
2023-03-27T05:18:37.945Z,0.4
2023-03-27T05:19:54.066Z,0.5
2023-03-27T05:21:10.000Z,0.4
2023-03-27T05:22:26.420Z,0.4
2023-03-27T05:23:41.648Z,0.7
2023-03-27T05:24:56.866Z,0.3
2023-03-27T05:26:13.004Z,0.4
2023-03-27T05:27:29.129Z,0.5
2023-03-27T05:28:45.267Z,0.4
2023-03-27T05:30:01.407Z,0.5
2023-03-27T05:31:17.545Z,0.4
2023-03-27T05:32:33.689Z,0.4
2023-03-27T05:33:49.809Z,0.4
2023-03-27T05:35:05.945Z,0.4
2023-03-27T05:36:22.078Z,0.4
2023-03-27T05:37:38.216Z,0.5
2023-03-27T05:38:54.361Z,0.5
2023-03-27T05:40:10.494Z,0.5
2023-03-27T05:41:26.636Z,0.5
2023-03-27T05:42:42.771Z,0.6
2023-03-27T05:43:58.889Z,0.7
2023-03-27T05:45:15.040Z,0.6
2023-03-27T05:46:31.184Z,0.6
2023-03-27T05:47:47.307Z,0.6
2023-03-27T05:49:03.443Z,0.7
2023-03-27T05:50:19.578Z,0.7
2023-03-27T05:51:35.725Z,0.7
2023-03-27T05:52:51.863Z,1
2023-03-27T05:54:07.988Z,0.8
2023-03-27T05:55:24.123Z,1
2023-03-27T05:56:40.323Z,0.9
2023-03-27T05:57:55.545Z,1.1
2023-03-27T05:59:10.755Z,0.8
2023-03-27T06:00:26.895Z,1.1
2023-03-27T06:01:43.035Z,1
2023-03-27T06:02:59.168Z,1.1
2023-03-27T06:04:15.314Z,1.3
2023-03-27T06:05:31.000Z,1.2
2023-03-27T06:06:47.574Z,1.2
2023-03-27T06:08:03.722Z,1.6
2023-03-27T06:09:19.854Z,1.3
2023-03-27T06:10:35.982Z,1.4
2023-03-27T06:11:52.114Z,1.3
2023-03-27T06:13:08.243Z,1.3
2023-03-27T06:14:24.394Z,1.2
2023-03-27T06:15:40.541Z,1.4
2023-03-27T06:16:56.667Z,1.4
2023-03-27T06:18:12.794Z,1.3
2023-03-27T06:19:28.926Z,1.4
2023-03-27T06:20:45.089Z,1.3
2023-03-27T06:22:01.209Z,1.6
2023-03-27T06:23:17.349Z,1.7
2023-03-27T06:24:33.487Z,1.7
2023-03-27T06:25:49.622Z,1.6
2023-03-27T06:27:05.751Z,1.7
2023-03-27T06:28:21.896Z,1.5
2023-03-27T06:29:38.023Z,1.9
2023-03-27T06:30:54.223Z,1.9
2023-03-27T06:32:09.455Z,1.6
2023-03-27T06:33:25.645Z,1.9
2023-03-27T06:34:40.853Z,1.9
2023-03-27T06:35:56.986Z,1.9
2023-03-27T06:37:13.131Z,2
2023-03-27T06:39:45.391Z,1.8
2023-03-27T06:41:01.527Z,2.3
2023-03-27T06:42:17.675Z,2.3
2023-03-27T06:43:33.820Z,2.1
2023-03-27T06:44:49.941Z,2.1
2023-03-27T06:46:06.074Z,2
2023-03-27T06:47:22.205Z,2.4
2023-03-27T06:48:38.347Z,2.1
2023-03-27T06:49:54.486Z,2.3
2023-03-27T06:51:10.619Z,2.3
2023-03-27T06:52:26.771Z,2.2
2023-03-27T06:53:42.889Z,2.6
2023-03-27T06:54:59.025Z,2.2
2023-03-27T06:56:15.166Z,2.2
2023-03-27T06:57:31.314Z,2.4
2023-03-27T06:58:47.450Z,2.1
2023-03-27T07:00:03.578Z,2.4
2023-03-27T07:01:19.711Z,2.4
2023-03-27T07:02:35.860Z,2.3
2023-03-27T07:03:51.981Z,2.8
2023-03-27T07:05:08.130Z,2.5
2023-03-27T07:06:24.322Z,2.5
2023-03-27T07:07:39.553Z,2.7
2023-03-27T07:08:54.762Z,2.7
2023-03-27T07:10:09.902Z,2.4
2023-03-27T07:11:26.050Z,2.6
2023-03-27T07:12:42.187Z,2.6
2023-03-27T07:13:58.332Z,2.9
2023-03-27T07:15:14.460Z,2.7
2023-03-27T07:16:30.584Z,2.8
2023-03-27T07:17:46.738Z,2.6
2023-03-27T07:19:02.863Z,2.6
2023-03-27T07:20:19.003Z,2.4
2023-03-27T07:21:35.146Z,2.8
2023-03-27T07:22:51.267Z,2.5
2023-03-27T07:24:07.428Z,2.6
2023-03-27T07:25:23.553Z,2.9
2023-03-27T07:26:39.693Z,2.8
2023-03-27T07:27:55.814Z,3.1
2023-03-27T07:29:11.957Z,3.1
2023-03-27T07:30:28.103Z,2.9
2023-03-27T07:31:44.243Z,3
2023-03-27T07:33:00.375Z,3.1
2023-03-27T07:34:16.511Z,3
2023-03-27T07:35:32.636Z,3.1
2023-03-27T07:36:48.779Z,3.2
2023-03-27T07:38:04.923Z,3.3
2023-03-27T07:39:21.047Z,3.2
2023-03-27T07:40:37.182Z,3.3
2023-03-27T07:41:53.319Z,3.3
2023-03-27T07:43:09.458Z,3.3
2023-03-27T07:44:25.589Z,3.7
2023-03-27T07:45:41.736Z,3.6
2023-03-27T07:46:57.869Z,3.6
2023-03-27T07:48:14.007Z,3.4
2023-03-27T07:49:30.153Z,3.5
2023-03-27T07:50:46.283Z,3.4
2023-03-27T07:52:02.407Z,3.4
2023-03-27T07:53:18.549Z,3.4
2023-03-27T07:54:34.673Z,3.9
2023-03-27T07:55:50.832Z,3.2
2023-03-27T07:57:07.030Z,3.3
2023-03-27T07:58:22.275Z,3.7
2023-03-27T07:59:37.481Z,3.6
2023-03-27T08:00:53.624Z,3.6
2023-03-27T08:02:09.759Z,3.7
2023-03-27T08:03:25.886Z,3.3
2023-03-27T08:04:42.026Z,3.8
2023-03-27T08:05:58.161Z,3.3
2023-03-27T08:07:14.296Z,3.3
2023-03-27T08:08:30.434Z,3.6
2023-03-27T08:09:46.575Z,3.6
2023-03-27T08:11:02.705Z,3.2
2023-03-27T08:12:18.842Z,3.3
2023-03-27T08:13:34.976Z,3.4
2023-03-27T08:14:51.118Z,3.3
2023-03-27T08:16:07.256Z,3.5
2023-03-27T08:17:23.390Z,3.5
2023-03-27T08:18:39.540Z,3.3
2023-03-27T08:19:55.654Z,3.4
2023-03-27T08:21:11.797Z,3.2
2023-03-27T08:22:27.934Z,3.7
2023-03-27T08:23:44.071Z,3.4
2023-03-27T08:25:00.221Z,3.4
2023-03-27T08:26:16.343Z,3.3
2023-03-27T08:27:32.479Z,3.2
2023-03-27T08:28:48.617Z,3.4
2023-03-27T08:30:04.741Z,3.4
2023-03-27T08:31:20.959Z,3.4
2023-03-27T08:32:36.199Z,3
2023-03-27T08:33:51.410Z,2.9
2023-03-27T08:35:07.547Z,3.1
2023-03-27T08:36:23.673Z,3.2
2023-03-27T08:37:39.816Z,3.1
2023-03-27T08:38:55.943Z,3
2023-03-27T08:40:12.086Z,3
2023-03-27T08:41:28.218Z,3.1
2023-03-27T08:42:44.364Z,3.1
2023-03-27T08:44:00.492Z,2.7
2023-03-27T08:45:16.633Z,2.6
2023-03-27T08:46:32.766Z,2.9
2023-03-27T08:47:48.903Z,2.7
2023-03-27T08:49:05.039Z,3
2023-03-27T08:50:21.165Z,2.9
2023-03-27T08:51:37.305Z,2.7
2023-03-27T08:52:53.435Z,2.9
2023-03-27T08:54:09.595Z,2.8
2023-03-27T08:55:25.734Z,2.8
2023-03-27T08:56:41.865Z,2.8
2023-03-27T08:57:57.987Z,3
2023-03-27T08:59:14.136Z,2.7
2023-03-27T09:00:30.269Z,2.4
2023-03-27T09:01:46.418Z,2.6
2023-03-27T09:03:02.551Z,3
2023-03-27T09:04:18.685Z,2.5
2023-03-27T09:05:34.866Z,3
2023-03-27T09:06:50.107Z,2.7
2023-03-27T09:08:06.306Z,2.6
2023-03-27T09:09:21.505Z,2.9
2023-03-27T09:10:37.640Z,2.6
2023-03-27T09:11:53.789Z,2.5
2023-03-27T09:13:09.918Z,2.9
2023-03-27T09:14:26.043Z,2.5
2023-03-27T09:15:42.178Z,2.7
2023-03-27T09:16:58.327Z,3
2023-03-27T09:18:14.460Z,2.6
2023-03-27T09:19:30.592Z,2.9
2023-03-27T09:20:46.734Z,2.8
2023-03-27T09:22:02.871Z,2.7
2023-03-27T09:23:19.019Z,2.7
2023-03-27T09:24:35.141Z,2.6
2023-03-27T09:25:51.289Z,2.9
2023-03-27T09:27:07.411Z,2.9
2023-03-27T09:28:23.556Z,2.8
2023-03-27T09:29:39.688Z,3.2
2023-03-27T09:30:55.833Z,3
2023-03-27T09:32:11.967Z,3
2023-03-27T09:33:28.087Z,3
2023-03-27T09:34:44.235Z,3.1
2023-03-27T09:36:00.369Z,2.9
2023-03-27T09:38:32.635Z,2.8
2023-03-27T09:39:48.781Z,3
2023-03-27T09:41:04.978Z,2.6
2023-03-27T09:42:20.209Z,2.9
2023-03-27T09:43:35.414Z,3
2023-03-27T09:44:51.557Z,3
2023-03-27T09:46:07.709Z,3.4
2023-03-27T09:47:23.830Z,3
2023-03-27T09:48:39.973Z,3.1
2023-03-27T09:49:56.099Z,2.8
2023-03-27T09:51:12.241Z,3.1
2023-03-27T09:52:28.374Z,2.9
2023-03-27T09:53:44.513Z,2.5
2023-03-27T09:55:00.642Z,2.6
2023-03-27T09:56:16.780Z,2.6
2023-03-27T09:57:32.916Z,2.9
2023-03-27T09:58:49.069Z,2.9
2023-03-27T10:00:05.189Z,2.7
2023-03-27T10:01:21.335Z,2.7
2023-03-27T10:02:37.473Z,2.9
2023-03-27T10:03:53.601Z,2.9
2023-03-27T10:05:09.739Z,3
2023-03-27T10:06:25.878Z,2.7
2023-03-27T10:07:42.017Z,2.8
2023-03-27T10:08:58.146Z,3
2023-03-27T10:10:14.283Z,2.8
2023-03-27T10:11:30.422Z,2.6
2023-03-27T10:12:46.554Z,3
2023-03-27T10:14:02.704Z,2.9
2023-03-27T10:15:18.888Z,2.8
2023-03-27T10:16:34.119Z,2.8
2023-03-27T10:17:49.337Z,2.6
2023-03-27T10:19:04.490Z,2.6
2023-03-27T10:20:20.629Z,2.5
2023-03-27T10:21:36.775Z,2.5
2023-03-27T10:22:52.899Z,2.7
2023-03-27T10:24:09.033Z,2.5
2023-03-27T10:25:25.163Z,2.9
2023-03-27T10:26:41.313Z,2.5
2023-03-27T10:27:57.445Z,2.8
2023-03-27T10:29:13.575Z,2.6
2023-03-27T10:30:29.723Z,2.9
2023-03-27T10:31:45.850Z,2.6
2023-03-27T10:33:01.997Z,3
2023-03-27T10:34:18.134Z,2.9
2023-03-27T10:35:34.262Z,2.5
2023-03-27T10:36:50.409Z,2.8
2023-03-27T10:38:06.527Z,2.4
2023-03-27T10:39:22.682Z,3.1
2023-03-27T10:40:38.824Z,2.6
2023-03-27T10:41:54.946Z,2.9
2023-03-27T10:43:11.093Z,2.7
2023-03-27T10:44:27.215Z,2.6
2023-03-27T10:45:43.363Z,2.7
2023-03-27T10:46:59.507Z,2.4
2023-03-27T10:48:15.627Z,2.9
2023-03-27T10:49:31.761Z,2.9
2023-03-27T10:50:47.897Z,2.9
2023-03-27T10:52:04.050Z,2.7
2023-03-27T10:53:20.177Z,3.1
2023-03-27T10:54:36.321Z,2.7
2023-03-27T10:55:52.460Z,2.9
2023-03-27T10:57:08.582Z,2.7
2023-03-27T10:58:24.732Z,2.9
2023-03-27T10:59:40.869Z,2.9
2023-03-27T11:00:57.002Z,2.8
2023-03-27T11:02:13.134Z,3.2
2023-03-27T11:03:29.268Z,3.1
2023-03-27T11:04:45.421Z,3.1
2023-03-27T11:06:01.611Z,3.3
2023-03-27T11:07:16.851Z,3
2023-03-27T11:08:32.062Z,3.2
2023-03-27T11:09:48.199Z,3.1
2023-03-27T11:11:04.329Z,3
2023-03-27T11:12:20.454Z,3.3
2023-03-27T11:13:36.597Z,3.1
2023-03-27T11:14:52.735Z,2.9
2023-03-27T11:16:08.886Z,2.7
2023-03-27T11:17:25.012Z,3
2023-03-27T11:18:41.141Z,3.3
2023-03-27T11:19:57.269Z,2.9
2023-03-27T11:21:13.434Z,3
2023-03-27T11:22:29.558Z,2.9
2023-03-27T11:23:45.694Z,2.8
2023-03-27T11:25:01.821Z,3.4
2023-03-27T11:26:17.951Z,2.8
2023-03-27T11:27:34.103Z,3
2023-03-27T11:28:50.241Z,2.9
2023-03-27T11:30:06.387Z,3.3
2023-03-27T11:31:22.504Z,3.2
2023-03-27T11:32:38.637Z,3.1
2023-03-27T11:33:54.798Z,3.2
2023-03-27T11:35:10.926Z,2.8
2023-03-27T11:36:27.057Z,3.1
2023-03-27T11:37:43.183Z,2.8
2023-03-27T11:38:59.313Z,3
2023-03-27T11:40:15.527Z,3.1
2023-03-27T11:41:30.779Z,2.7
2023-03-27T11:42:46.969Z,3.1
2023-03-27T11:44:02.170Z,3
2023-03-27T11:45:18.294Z,3
2023-03-27T11:46:34.442Z,2.9
2023-03-27T11:47:50.573Z,3
2023-03-27T11:49:06.705Z,2.9
2023-03-27T11:50:22.846Z,2.9
2023-03-27T11:51:38.976Z,2.8
2023-03-27T11:52:55.119Z,2.9
2023-03-27T11:54:11.244Z,3
2023-03-27T11:55:27.383Z,2.8
2023-03-27T11:56:43.523Z,2.8
2023-03-27T11:57:59.665Z,2.8
2023-03-27T11:59:15.798Z,2.9
2023-03-27T12:00:31.941Z,3
2023-03-27T12:01:48.075Z,3
2023-03-27T12:03:04.217Z,3
2023-03-27T12:04:20.351Z,3
2023-03-27T12:05:36.477Z,2.9
2023-03-27T12:06:52.622Z,2.9
2023-03-27T12:08:08.754Z,3.1
2023-03-27T12:09:24.893Z,2.8
2023-03-27T12:10:41.037Z,2.9
2023-03-27T12:11:57.157Z,2.9
2023-03-27T12:13:13.293Z,2.9
2023-03-27T12:14:29.430Z,2.9
2023-03-27T12:15:45.633Z,2.7
2023-03-27T12:17:00.887Z,2.8
2023-03-27T12:18:16.095Z,3
2023-03-27T12:19:32.241Z,2.9
2023-03-27T12:20:48.387Z,3.2
2023-03-27T12:22:04.515Z,2.8
2023-03-27T12:23:20.638Z,2.9
2023-03-27T12:24:36.775Z,3.4
2023-03-27T12:25:52.922Z,3.1
2023-03-27T12:27:09.064Z,3.1
2023-03-27T12:28:25.201Z,3
2023-03-27T12:29:41.330Z,2.6
2023-03-27T12:30:57.454Z,3.2
2023-03-27T12:32:13.609Z,3.1
2023-03-27T12:33:29.745Z,2.9
2023-03-27T12:34:45.883Z,3.2
2023-03-27T12:36:02.015Z,2.9
2023-03-27T12:37:18.149Z,3
2023-03-27T12:38:34.298Z,2.9
2023-03-27T12:39:50.427Z,2.9
2023-03-27T12:41:06.564Z,3
2023-03-27T12:42:22.685Z,3
2023-03-27T12:43:38.835Z,2.7
2023-03-27T12:44:54.980Z,2.8
2023-03-27T12:46:11.101Z,2.9
2023-03-27T12:47:27.234Z,3.2
2023-03-27T12:48:43.382Z,3
2023-03-27T12:49:59.566Z,3
2023-03-27T12:51:14.816Z,3.2
2023-03-27T12:52:30.013Z,3.2
2023-03-27T12:53:46.149Z,2.7
2023-03-27T12:55:02.289Z,2.8
2023-03-27T12:56:18.438Z,2.4
2023-03-27T12:57:34.571Z,2.7
2023-03-27T12:58:50.686Z,2.7
2023-03-27T13:00:06.833Z,3
2023-03-27T13:01:22.973Z,3.3
2023-03-27T13:02:39.115Z,2.9
2023-03-27T13:03:55.248Z,2.9
2023-03-27T13:05:11.368Z,2.8
2023-03-27T13:06:27.508Z,3.1
2023-03-27T13:07:43.657Z,2.9
2023-03-27T13:08:59.794Z,3.1
2023-03-27T13:10:15.929Z,2.8
2023-03-27T13:11:32.047Z,3.1
2023-03-27T13:12:48.186Z,3.2
2023-03-27T13:14:04.331Z,3
2023-03-27T13:15:20.481Z,3.1
2023-03-27T13:16:36.610Z,2.7
2023-03-27T13:17:52.729Z,2.9
2023-03-27T13:19:08.879Z,3
2023-03-27T13:20:25.000Z,3.2
2023-03-27T13:21:41.154Z,2.7
2023-03-27T13:22:57.295Z,2.8
2023-03-27T13:24:13.479Z,3.1
2023-03-27T13:25:28.713Z,2.7
2023-03-27T13:26:44.906Z,2.9
2023-03-27T13:28:00.108Z,3
2023-03-27T13:29:16.257Z,3.1
2023-03-27T13:30:32.403Z,3.1
2023-03-27T13:31:48.537Z,2.6
2023-03-27T13:33:04.672Z,2.9
2023-03-27T13:34:20.788Z,2.6
2023-03-27T13:35:36.927Z,2.8
2023-03-27T13:36:53.078Z,2.7
2023-03-27T13:38:09.209Z,2.8
2023-03-27T13:39:25.349Z,3
2023-03-27T13:40:41.483Z,3
2023-03-27T13:41:57.604Z,2.6
2023-03-27T13:43:13.766Z,2.6
2023-03-27T13:44:29.899Z,3
2023-03-27T13:45:46.026Z,2.8
2023-03-27T13:47:02.159Z,2.8
2023-03-27T13:48:18.288Z,2.7
2023-03-27T13:49:34.447Z,2.8
2023-03-27T13:50:50.579Z,2.7
2023-03-27T13:52:06.704Z,2.8
2023-03-27T13:53:22.000Z,2.5
2023-03-27T13:54:38.980Z,2.8
2023-03-27T13:55:55.114Z,2.8
2023-03-27T13:57:11.246Z,2.7
2023-03-27T13:58:27.384Z,2.7
2023-03-27T13:59:43.583Z,2.6
2023-03-27T14:00:58.819Z,2.6
2023-03-27T14:02:14.029Z,2.5
2023-03-27T14:03:29.167Z,2.6
2023-03-27T14:04:45.333Z,2.6
2023-03-27T14:06:01.465Z,2.4
2023-03-27T14:07:17.596Z,2.4
2023-03-27T14:08:33.723Z,2.5
2023-03-27T14:09:49.850Z,3.4
2023-03-27T14:11:06.003Z,2.5
2023-03-27T14:12:22.147Z,2.5
2023-03-27T14:14:54.412Z,2.6
2023-03-27T14:16:10.536Z,2.2
2023-03-27T14:17:26.685Z,2.4
2023-03-27T14:18:42.809Z,2.5
2023-03-27T14:19:58.958Z,2.2
2023-03-27T14:21:15.076Z,2.3
2023-03-27T14:22:31.227Z,2.6
2023-03-27T14:23:47.357Z,2.3
2023-03-27T14:25:03.504Z,2.3
2023-03-27T14:26:19.622Z,2.5
2023-03-27T14:27:35.762Z,2.1
2023-03-27T14:28:51.892Z,2
2023-03-27T14:30:08.045Z,2.3
2023-03-27T14:31:24.178Z,2.3
2023-03-27T14:32:40.307Z,2.2
2023-03-27T14:33:56.441Z,2.2
2023-03-27T14:35:12.569Z,2.4
2023-03-27T14:36:28.736Z,2
2023-03-27T14:37:44.861Z,2
2023-03-27T14:39:00.992Z,2.3
2023-03-27T14:40:17.123Z,2.2
2023-03-27T14:41:33.252Z,2.1
2023-03-27T14:42:49.415Z,2.2
2023-03-27T14:44:05.535Z,2.1
2023-03-27T14:45:21.672Z,2
2023-03-27T14:46:37.801Z,2.1
2023-03-27T14:47:53.950Z,2.2
2023-03-27T14:49:10.089Z,2
2023-03-27T14:50:26.285Z,2.2
2023-03-27T14:51:41.527Z,2.1
2023-03-27T14:52:57.715Z,2.2
2023-03-27T14:54:12.921Z,2
2023-03-27T14:55:29.047Z,1.9
2023-03-27T14:56:45.176Z,1.8
2023-03-27T14:58:01.310Z,2.1
2023-03-27T14:59:17.464Z,1.9
2023-03-27T15:00:33.606Z,2
2023-03-27T15:01:49.741Z,2.1
2023-03-27T15:03:05.859Z,1.8
2023-03-27T15:04:21.997Z,1.8
2023-03-27T15:05:38.152Z,1.9
2023-03-27T15:06:54.276Z,1.8
2023-03-27T15:08:10.412Z,2
2023-03-27T15:09:26.547Z,2.1
2023-03-27T15:10:42.678Z,1.9
2023-03-27T15:11:58.835Z,2.1
2023-03-27T15:13:14.954Z,1.9
2023-03-27T15:14:31.104Z,2
2023-03-27T15:15:47.226Z,1.6
2023-03-27T15:17:03.359Z,1.7
2023-03-27T15:18:19.502Z,1.7
2023-03-27T15:19:35.638Z,1.6
2023-03-27T15:20:51.777Z,1.6
2023-03-27T15:22:07.912Z,2
2023-03-27T15:23:24.039Z,1.7
2023-03-27T15:24:40.199Z,1.9
2023-03-27T15:25:56.385Z,1.7
2023-03-27T15:27:11.582Z,1.9
2023-03-27T15:28:27.728Z,1.6
2023-03-27T15:29:43.878Z,1.7
2023-03-27T15:31:00.014Z,1.7
2023-03-27T15:32:16.142Z,1.9
2023-03-27T15:33:32.281Z,1.7
2023-03-27T15:34:48.416Z,1.8
2023-03-27T15:36:04.550Z,1.5
2023-03-27T15:37:20.683Z,1.7
2023-03-27T15:38:36.823Z,1.8
2023-03-27T15:39:52.953Z,1.8
2023-03-27T15:41:09.096Z,1.7
2023-03-27T15:42:25.234Z,1.7
2023-03-27T15:43:41.365Z,1.6
2023-03-27T15:44:57.508Z,1.5
2023-03-27T15:46:13.640Z,1.8
2023-03-27T15:47:29.770Z,1.8
2023-03-27T15:48:45.925Z,1.6
2023-03-27T15:50:02.057Z,1.7
2023-03-27T15:51:18.190Z,1.4
2023-03-27T15:52:34.318Z,1.7
2023-03-27T15:53:50.458Z,1.5
2023-03-27T15:55:06.601Z,1.6
2023-03-27T15:56:22.735Z,1.6
2023-03-27T15:57:38.877Z,1.8
2023-03-27T15:58:55.069Z,1.3
2023-03-27T16:00:10.306Z,1.5
2023-03-27T16:01:26.498Z,1.4
2023-03-27T16:02:41.691Z,1.5
2023-03-27T16:03:57.839Z,1.6
2023-03-27T16:05:13.977Z,1.5
2023-03-27T16:06:30.119Z,1.8
2023-03-27T16:07:46.241Z,1.5
2023-03-27T16:09:02.380Z,1.4
2023-03-27T16:10:18.507Z,1.6
2023-03-27T16:11:34.650Z,1.5
2023-03-27T16:12:50.799Z,1.6
2023-03-27T16:14:06.929Z,1.5
2023-03-27T16:15:23.051Z,1.5
2023-03-27T16:16:39.193Z,1.4
2023-03-27T16:17:55.345Z,1.6
2023-03-27T16:19:11.464Z,1.4
2023-03-27T16:20:27.600Z,1.3
2023-03-27T16:21:43.730Z,1.4
2023-03-27T16:22:59.876Z,1.3
2023-03-27T16:24:16.029Z,1.4
2023-03-27T16:25:32.147Z,1.3
2023-03-27T16:26:48.292Z,1.3
2023-03-27T16:28:04.426Z,1.6
2023-03-27T16:29:20.554Z,1.5
2023-03-27T16:30:36.711Z,1.5
2023-03-27T16:31:52.827Z,1.4
2023-03-27T16:33:08.964Z,1.4
2023-03-27T16:34:25.161Z,1.2
2023-03-27T16:35:40.421Z,1.4
2023-03-27T16:36:55.632Z,1.3
2023-03-27T16:38:10.781Z,1.4
2023-03-27T16:39:26.922Z,1.4
2023-03-27T16:40:43.055Z,1.2
2023-03-27T16:41:59.194Z,1.2
2023-03-27T16:43:15.329Z,1.2
2023-03-27T16:44:31.459Z,1.2
2023-03-27T16:45:47.607Z,1.3
2023-03-27T16:47:03.729Z,1.2
2023-03-27T16:48:19.873Z,1.4
2023-03-27T16:49:36.011Z,1.3
2023-03-27T16:50:52.138Z,1.4
2023-03-27T16:52:08.288Z,1.2
2023-03-27T16:53:24.420Z,1.2
2023-03-27T16:54:40.550Z,1.3
2023-03-27T16:55:56.678Z,1.3
2023-03-27T16:57:12.809Z,1.3
2023-03-27T16:58:28.965Z,1.2
2023-03-27T16:59:45.106Z,1.4
2023-03-27T17:01:01.242Z,1.2
2023-03-27T17:02:17.367Z,1.3
2023-03-27T17:03:33.496Z,1.3
2023-03-27T17:04:49.658Z,1.3
2023-03-27T17:06:05.788Z,1.2
2023-03-27T17:07:21.908Z,1.3
2023-03-27T17:08:38.038Z,1.1
2023-03-27T17:09:54.182Z,1.1
2023-03-27T17:11:10.333Z,1.1
2023-03-27T17:12:26.461Z,1.2
2023-03-27T17:13:42.587Z,1.2
2023-03-27T17:14:58.734Z,1.3
2023-03-27T17:16:14.865Z,1.2
2023-03-27T17:17:31.006Z,1.2
2023-03-27T17:18:47.149Z,1.1
2023-03-27T17:20:03.269Z,1.1
2023-03-27T17:21:19.406Z,1.1
2023-03-27T17:22:35.547Z,1.2
2023-03-27T17:23:51.698Z,0.9
2023-03-27T17:25:07.883Z,1.2
2023-03-27T17:26:23.129Z,1.1
2023-03-27T17:27:38.330Z,1.3
2023-03-27T17:28:54.461Z,1
2023-03-27T17:30:10.601Z,1.2
2023-03-27T17:31:26.722Z,1.1
2023-03-27T17:32:42.858Z,1.1
2023-03-27T17:33:59.017Z,1.2
2023-03-27T17:35:15.150Z,1.1
2023-03-27T17:36:31.284Z,1.1
2023-03-27T17:37:47.412Z,1.1